Time;durP1;ratioP1;P1;durP2;ratioP2;P2;SDS_P1;SDS_P2;PMS_P1;PMS_P2;Temp;Humidity;BMP_temperature;BMP_pressure;BME280_temperature;BME280_humidity;BME280_pressure;Samples;Min_cycle;Max_cycle;Signal;HPM_P1;HPM_P2
2022/10/20 00:02:22;;;;;;;;;6.00;6.00;;;;;14.18;48.87;99749.56;6214363;28;96267;-70
2022/10/20 00:05:26;;;;;;;;;4.60;4.00;;;;;14.15;48.19;99752.72;6213962;28;96304;-70
2022/10/20 00:08:30;;;;;;;;;6.00;6.00;;;;;14.10;48.15;99754.44;6231979;28;96943;-69
2022/10/20 00:11:33;;;;;;;;;6.00;5.75;;;;;13.92;48.37;99735.44;6214506;28;96932;-70
2022/10/20 00:14:38;;;;;;;;;4.80;4.20;;;;;13.97;48.79;99758.13;6213766;28;96267;-70
2022/10/20 00:17:43;;;;;;;;;6.75;6.00;;;;;13.89;48.81;99759.22;6213592;28;96290;-70
2022/10/20 00:20:48;;;;;;;;;5.00;5.00;;;;;13.75;49.34;99757.69;6212957;28;96537;-69
2022/10/20 00:23:52;;;;;;;;;6.00;6.00;;;;;13.59;49.94;99755.50;6213560;28;96701;-66
2022/10/20 00:26:56;;;;;;;;;4.00;4.00;;;;;13.46;50.80;99758.31;6214125;28;96384;-70
2022/10/20 00:30:00;;;;;;;;;6.00;6.00;;;;;13.32;51.30;99762.16;6213840;28;96295;-70
2022/10/20 00:33:04;;;;;;;;;5.00;4.60;;;;;13.26;51.52;99754.91;6213557;28;96370;-70
2022/10/20 00:36:13;;;;;;;;;6.80;6.40;;;;;13.17;51.53;99761.63;6228073;28;96429;-70
2022/10/20 00:39:17;;;;;;;;;5.40;5.00;;;;;13.06;52.20;99760.41;6213930;28;96912;-70
2022/10/20 00:42:20;;;;;;;;;6.00;6.00;;;;;12.95;52.65;99763.81;6214032;28;96266;-70
2022/10/20 00:45:23;;;;;;;;;8.00;7.00;;;;;12.85;52.57;99752.63;6213458;28;96240;-70
2022/10/20 00:48:31;;;;;;;;;5.00;5.00;;;;;12.77;52.80;99753.69;6209259;28;97491;-71
2022/10/20 00:51:36;;;;;;;;;5.00;5.00;;;;;12.67;53.07;99749.75;6213961;28;96351;-69
2022/10/20 00:54:39;;;;;;;;;4.00;4.00;;;;;12.54;53.09;99756.06;6221177;28;96838;-70
2022/10/20 00:57:46;;;;;;;;;8.00;7.00;;;;;12.45;53.43;99751.94;6216664;28;96448;-70
2022/10/20 01:00:55;;;;;;;;;5.00;5.00;;;;;12.35;53.15;99754.25;6205793;28;96652;-70
2022/10/20 01:04:00;;;;;;;;;5.40;5.40;;;;;12.27;53.74;99760.69;6224573;28;96390;-70
2022/10/20 01:07:05;;;;;;;;;6.20;6.00;;;;;12.19;53.68;99755.53;6222050;28;96810;-71
2022/10/20 01:10:10;;;;;;;;;6.00;5.00;;;;;12.08;53.98;99758.88;6227458;28;97007;-70
2022/10/20 01:13:20;;;;;;;;;5.00;5.00;;;;;11.98;54.36;99750.34;6233289;28;96415;-71
2022/10/20 01:16:29;;;;;;;;;5.00;5.00;;;;;11.87;53.97;99749.13;6224555;28;97278;-71
2022/10/20 01:20:05;;;;;;;;;6.00;5.25;;;;;11.83;53.98;99752.44;6221566;28;96692;-70
2022/10/20 01:27:39;;;;;;;;;8.00;7.00;;;;;11.66;54.82;99743.91;6656593;23;99430;-64
2022/10/20 01:30:47;;;;;;;;;5.00;5.00;;;;;11.59;54.88;99743.06;6024925;28;96579;-64
2022/10/20 01:34:03;;;;;;;;;5.00;5.00;;;;;11.56;54.81;99738.91;6034952;28;97015;-64
2022/10/20 01:37:14;;;;;;;;;5.00;5.00;;;;;11.58;54.38;99742.22;6024216;28;96717;-65
2022/10/20 01:40:44;;;;;;;;;6.50;5.00;;;;;11.58;54.47;99749.53;6037541;28;96605;-64
2022/10/20 01:43:51;;;;;;;;;6.00;6.00;;;;;11.54;54.42;99756.34;6039797;28;96549;-65
2022/10/20 01:46:57;;;;;;;;;6.00;6.00;;;;;11.51;54.39;99759.47;6024023;28;98457;-64
2022/10/20 01:50:03;;;;;;;;;6.00;5.00;;;;;11.45;54.56;99760.28;6037858;28;98184;-64
2022/10/20 01:53:07;;;;;;;;;6.40;5.00;;;;;11.43;54.42;99755.13;6041685;28;98098;-64
2022/10/20 01:56:16;;;;;;;;;6.00;6.00;;;;;11.39;54.63;99740.34;6039692;28;96412;-64
2022/10/20 01:59:35;;;;;;;;;6.00;6.00;;;;;11.34;54.81;99742.03;6022340;28;97120;-65
2022/10/20 02:03:08;;;;;;;;;7.00;6.60;;;;;11.25;55.06;99739.50;6002810;29;96403;-65
2022/10/20 02:06:23;;;;;;;;;5.40;5.40;;;;;11.07;55.81;99746.53;6001084;29;96664;-64
2022/10/20 02:09:32;;;;;;;;;7.00;6.00;;;;;10.97;56.08;99744.22;6029890;28;97875;-64
2022/10/20 02:12:40;;;;;;;;;7.40;7.00;;;;;10.89;56.42;99741.72;6027317;28;96494;-65
2022/10/20 02:15:52;;;;;;;;;6.40;6.40;;;;;10.89;56.22;99746.28;6003949;28;97222;-65
2022/10/20 02:18:57;;;;;;;;;6.75;6.25;;;;;10.84;56.19;99749.59;6018557;29;96161;-64
2022/10/20 02:22:07;;;;;;;;;6.00;6.00;;;;;10.84;56.00;99753.13;6019562;29;96293;-64
2022/10/20 02:25:11;;;;;;;;;6.00;6.00;;;;;10.86;56.22;99744.81;6017603;29;96440;-64
2022/10/20 02:28:17;;;;;;;;;5.40;5.00;;;;;10.88;56.14;99748.16;6017749;29;96593;-64
2022/10/20 02:31:22;;;;;;;;;5.00;4.00;;;;;10.88;56.43;99750.00;6016864;28;97081;-65
2022/10/20 02:34:26;;;;;;;;;6.40;6.40;;;;;10.84;56.38;99754.97;6019507;28;96874;-64
2022/10/20 02:37:29;;;;;;;;;5.60;5.00;;;;;10.83;56.14;99761.41;6024101;28;96586;-65
2022/10/20 02:40:32;;;;;;;;;7.00;6.00;;;;;10.68;56.71;99748.06;6016822;29;96315;-64
2022/10/20 02:43:36;;;;;;;;;5.80;5.80;;;;;10.77;56.61;99757.66;6021965;29;96296;-64
2022/10/20 02:46:40;;;;;;;;;6.60;6.60;;;;;10.75;56.35;99759.69;6021342;28;96519;-65
2022/10/20 02:49:43;;;;;;;;;5.00;4.80;;;;;10.72;56.71;99749.31;6022931;29;96385;-64
2022/10/20 02:52:47;;;;;;;;;7.00;7.00;;;;;10.58;56.97;99755.69;6013960;29;96422;-64
2022/10/20 02:55:50;;;;;;;;;4.40;4.40;;;;;10.47;56.85;99758.13;6007055;29;97160;-64
2022/10/20 02:58:54;;;;;;;;;5.40;5.40;;;;;10.34;57.39;99758.91;6023485;29;96875;-64
2022/10/20 03:01:59;;;;;;;;;6.00;6.00;;;;;10.26;57.16;99772.53;6033235;28;96676;-64
2022/10/20 03:05:03;;;;;;;;;6.00;6.00;;;;;10.24;57.28;99772.72;6025393;28;96313;-65
2022/10/20 03:08:06;;;;;;;;;6.60;6.60;;;;;10.21;57.21;99775.84;6005311;29;98418;-64
2022/10/20 03:11:10;;;;;;;;;8.00;7.60;;;;;10.16;57.37;99778.28;6023900;28;96339;-64
2022/10/20 03:14:13;;;;;;;;;6.00;5.00;;;;;10.14;56.92;99774.91;5998950;29;96254;-65
2022/10/20 03:17:18;;;;;;;;;6.00;6.00;;;;;10.15;56.69;99779.28;6013606;29;96778;-64
2022/10/20 03:20:22;;;;;;;;;6.00;6.00;;;;;10.08;56.68;99786.47;6022691;29;96420;-65
2022/10/20 03:23:25;;;;;;;;;6.40;5.40;;;;;10.00;56.82;99781.25;6022637;29;96547;-64
2022/10/20 03:26:28;;;;;;;;;5.00;5.00;;;;;9.97;57.02;99777.06;6018722;29;96606;-64
2022/10/20 03:29:32;;;;;;;;;5.00;4.00;;;;;9.95;57.32;99783.69;6020804;29;96439;-65
2022/10/20 03:32:36;;;;;;;;;6.00;5.40;;;;;9.90;56.73;99791.53;6020430;29;97340;-64
2022/10/20 03:35:40;;;;;;;;;6.00;5.50;;;;;9.88;56.78;99789.00;6020930;28;96819;-64
2022/10/20 03:38:43;;;;;;;;;6.00;6.00;;;;;9.83;56.56;99796.84;6033795;28;96690;-64
2022/10/20 03:41:47;;;;;;;;;5.00;5.00;;;;;9.80;56.68;99797.25;6030703;28;97161;-64
2022/10/20 03:44:50;;;;;;;;;4.00;4.00;;;;;9.74;56.60;99806.09;6007116;29;97002;-64
2022/10/20 03:47:55;;;;;;;;;6.00;6.00;;;;;9.70;57.56;99801.28;6021911;29;96415;-64
2022/10/20 03:50:59;;;;;;;;;7.00;7.00;;;;;9.74;57.40;99810.66;6022209;29;96337;-64
2022/10/20 03:54:03;;;;;;;;;6.00;6.00;;;;;9.71;57.42;99806.50;6019057;29;99785;-64
2022/10/20 03:57:06;;;;;;;;;4.00;4.00;;;;;9.74;57.36;99803.41;6021168;28;96834;-64
2022/10/20 04:00:11;;;;;;;;;6.00;5.20;;;;;9.64;57.04;99807.44;6003176;29;97276;-64
2022/10/20 04:03:16;;;;;;;;;7.00;5.80;;;;;9.69;57.58;99803.16;6020701;29;98365;-65
2022/10/20 04:06:20;;;;;;;;;5.40;5.00;;;;;9.66;57.56;99808.94;6005090;29;96972;-65
2022/10/20 04:09:23;;;;;;;;;6.80;6.00;;;;;9.60;57.04;99815.09;6021542;29;96416;-65
2022/10/20 04:12:27;;;;;;;;;5.00;5.00;;;;;9.52;57.24;99812.53;6019593;29;96260;-65
2022/10/20 04:15:31;;;;;;;;;6.20;6.00;;;;;9.52;57.35;99809.84;6018989;29;97190;-65
2022/10/20 04:18:36;;;;;;;;;9.00;8.00;;;;;9.52;56.97;99802.59;6019514;28;97366;-65
2022/10/20 04:21:39;;;;;;;;;6.00;5.00;;;;;9.44;57.12;99804.56;6017587;29;97048;-65
2022/10/20 04:24:42;;;;;;;;;8.00;8.00;;;;;9.39;57.17;99807.00;6021695;29;96794;-65
2022/10/20 04:27:46;;;;;;;;;7.00;6.00;;;;;9.29;57.07;99807.31;6003120;29;98590;-64
2022/10/20 04:30:49;;;;;;;;;7.00;7.00;;;;;9.28;57.65;99805.66;6020956;29;97989;-66
2022/10/20 04:33:55;;;;;;;;;10.00;8.00;;;;;9.30;57.67;99810.84;6019979;29;96287;-65
2022/10/20 04:36:58;;;;;;;;;7.00;6.80;;;;;9.29;57.31;99810.00;6002949;28;99303;-67
2022/10/20 04:40:01;;;;;;;;;9.40;9.00;;;;;9.22;57.87;99809.13;6015789;28;99631;-67
2022/10/20 04:43:05;;;;;;;;;6.00;6.00;;;;;9.20;58.05;99810.31;6019208;28;96358;-67
2022/10/20 04:46:08;;;;;;;;;7.00;7.00;;;;;9.08;58.29;99805.44;6000595;28;96759;-67
2022/10/20 04:49:13;;;;;;;;;9.80;7.00;;;;;9.06;57.92;99804.78;6018652;29;96231;-68
2022/10/20 04:52:16;;;;;;;;;7.25;6.50;;;;;9.07;58.04;99797.56;6002169;29;99101;-66
2022/10/20 04:55:19;;;;;;;;;7.40;7.40;;;;;9.09;57.79;99801.72;6023292;28;96919;-66
2022/10/20 04:58:23;;;;;;;;;10.00;9.00;;;;;8.98;57.87;99772.66;6021193;28;96656;-67
2022/10/20 05:01:28;;;;;;;;;9.00;9.00;;;;;9.03;57.10;99802.50;6014836;28;98482;-67
2022/10/20 05:04:32;;;;;;;;;9.00;9.00;;;;;8.98;57.48;99813.00;6001305;29;96496;-67
2022/10/20 05:07:36;;;;;;;;;8.20;7.20;;;;;8.96;57.62;99806.94;6018743;29;96750;-67
2022/10/20 05:10:40;;;;;;;;;10.50;9.50;;;;;9.01;57.53;99817.13;6017124;29;98737;-67
2022/10/20 05:13:44;;;;;;;;;8.00;7.00;;;;;9.07;57.83;99817.22;6008195;29;96407;-68
2022/10/20 05:16:47;;;;;;;;;9.60;8.60;;;;;9.11;57.07;99825.75;6026567;28;97472;-70
2022/10/20 05:19:52;;;;;;;;;9.00;7.40;;;;;9.12;56.73;99808.59;6016079;28;96682;-70
2022/10/20 05:22:55;;;;;;;;;10.00;9.00;;;;;9.13;56.79;99824.53;6018772;29;96457;-69
2022/10/20 05:26:02;;;;;;;;;9.60;8.00;;;;;9.18;57.19;99825.84;6025305;28;96497;-69
2022/10/20 05:29:07;;;;;;;;;8.00;7.60;;;;;9.27;56.97;99827.38;6002896;29;96636;-69
2022/10/20 05:32:11;;;;;;;;;11.40;11.00;;;;;9.40;57.17;99822.13;6017399;28;97218;-71
2022/10/20 05:35:16;;;;;;;;;10.00;8.00;;;;;9.50;56.89;99820.78;6039302;28;96471;-70
2022/10/20 05:38:20;;;;;;;;;8.00;7.60;;;;;9.68;57.43;99836.47;6024201;28;97424;-70
2022/10/20 05:41:25;;;;;;;;;9.25;9.00;;;;;9.85;56.42;99827.13;6018121;29;98052;-67
2022/10/20 05:44:28;;;;;;;;;7.00;7.00;;;;;10.04;56.24;99831.00;6013085;29;98296;-70
2022/10/20 05:47:31;;;;;;;;;9.80;8.80;;;;;10.22;55.86;99836.75;6022306;28;96909;-70
2022/10/20 05:50:37;;;;;;;;;9.00;8.00;;;;;10.41;55.64;99835.22;6030567;28;96990;-70
2022/10/20 05:53:40;;;;;;;;;10.50;9.50;;;;;10.63;55.40;99844.91;6032897;28;96911;-71
2022/10/20 05:56:44;;;;;;;;;9.00;8.50;;;;;10.91;54.92;99841.31;6010475;28;98345;-70
2022/10/20 05:59:48;;;;;;;;;12.00;11.00;;;;;11.31;54.23;99845.84;5986016;29;96877;-70
2022/10/20 06:02:53;;;;;;;;;11.40;10.40;;;;;11.85;53.02;99851.19;5985639;29;96551;-70
2022/10/20 06:05:59;;;;;;;;;9.50;9.50;;;;;12.52;51.90;99855.50;6023585;28;96549;-70
2022/10/20 06:09:05;;;;;;;;;9.00;9.00;;;;;13.33;49.68;99861.34;6007640;28;96459;-71
2022/10/20 06:12:09;;;;;;;;;10.00;9.00;;;;;14.22;47.87;99856.53;6003558;28;96734;-71
2022/10/20 06:15:13;;;;;;;;;10.00;10.00;;;;;15.31;46.21;99855.84;6004468;28;98429;-70
2022/10/20 06:18:16;;;;;;;;;24.20;23.20;;;;;17.07;42.28;99866.78;6017746;28;96414;-70
2022/10/20 06:21:23;;;;;;;;;17.60;17.00;;;;;19.43;37.66;99857.41;5994357;28;98620;-70
2022/10/20 06:24:27;;;;;;;;;28.20;28.00;;;;;21.74;33.63;99861.31;6023776;28;96522;-70
2022/10/20 06:27:30;;;;;;;;;15.80;15.80;;;;;23.98;30.38;99860.59;6015963;28;96812;-70
2022/10/20 06:30:33;;;;;;;;;12.80;12.80;;;;;25.93;26.55;99879.25;6023977;28;96763;-70
2022/10/20 06:33:37;;;;;;;;;14.80;13.00;;;;;27.64;24.47;99863.47;6022059;28;97157;-70
2022/10/20 06:36:42;;;;;;;;;14.00;13.00;;;;;28.94;22.19;99855.00;5993812;28;96720;-71
2022/10/20 06:39:46;;;;;;;;;13.20;12.60;;;;;30.32;20.35;99874.78;6022251;28;96987;-71
2022/10/20 06:42:49;;;;;;;;;12.75;12.00;;;;;31.29;19.89;99873.91;6001444;28;98450;-71
2022/10/20 06:45:57;;;;;;;;;13.00;12.40;;;;;32.05;18.74;99873.78;6023247;28;96762;-71
2022/10/20 06:49:02;;;;;;;;;9.50;9.25;;;;;32.85;18.07;99866.00;6021820;28;96745;-72
2022/10/20 06:52:07;;;;;;;;;10.00;9.00;;;;;33.64;17.49;99864.66;6021377;28;96416;-70
2022/10/20 06:55:10;;;;;;;;;11.00;10.00;;;;;34.40;16.48;99858.19;6023434;28;96317;-72
2022/10/20 06:58:13;;;;;;;;;10.00;10.00;;;;;35.03;15.77;99863.94;6024088;28;96427;-70
2022/10/20 07:01:18;;;;;;;;;9.00;8.60;;;;;35.83;15.39;99857.88;6022598;28;96442;-70
2022/10/20 07:04:22;;;;;;;;;12.00;10.00;;;;;35.81;14.66;99863.06;6010708;28;96295;-71
2022/10/20 07:07:26;;;;;;;;;12.00;10.60;;;;;35.75;14.39;99858.91;6028168;28;96661;-70
2022/10/20 07:10:30;;;;;;;;;11.40;11.00;;;;;36.01;14.61;99859.91;6030217;28;96756;-69
2022/10/20 07:13:34;;;;;;;;;9.60;9.00;;;;;36.50;14.18;99856.53;6027777;28;96578;-70
2022/10/20 07:16:38;;;;;;;;;8.00;8.00;;;;;36.95;14.34;99864.22;6031384;28;96386;-71
2022/10/20 07:19:41;;;;;;;;;9.00;8.00;;;;;37.30;13.86;99849.97;6020303;29;98737;-69
2022/10/20 07:22:46;;;;;;;;;7.00;7.00;;;;;37.72;13.21;99859.13;6011253;28;97892;-69
2022/10/20 07:25:49;;;;;;;;;7.40;7.00;;;;;37.69;12.18;99848.59;6027256;28;96265;-70
2022/10/20 07:28:54;;;;;;;;;7.00;5.80;;;;;37.28;12.72;99850.38;6008006;29;96667;-70
2022/10/20 07:31:58;;;;;;;;;6.00;6.00;;;;;37.85;12.58;99848.41;6022504;29;96484;-70
2022/10/20 07:35:04;;;;;;;;;6.00;5.00;;;;;38.27;13.25;99851.00;6029358;28;97243;-70
2022/10/20 07:38:09;;;;;;;;;6.00;5.00;;;;;38.36;12.53;99840.25;6008698;28;96870;-70
2022/10/20 07:41:13;;;;;;;;;6.60;6.60;;;;;38.30;12.57;99844.59;6003125;29;96728;-70
2022/10/20 07:44:17;;;;;;;;;6.00;5.00;;;;;38.83;12.50;99833.13;6019428;28;96432;-70
2022/10/20 07:47:20;;;;;;;;;7.00;6.00;;;;;37.96;12.60;99837.31;6003036;29;98975;-70
2022/10/20 07:50:23;;;;;;;;;7.00;6.00;;;;;38.66;12.26;99836.59;6019761;28;96357;-69
2022/10/20 07:53:28;;;;;;;;;6.00;5.20;;;;;39.11;12.48;99836.22;5990873;28;98397;-71
2022/10/20 07:56:33;;;;;;;;;3.00;3.00;;;;;37.80;12.56;99823.41;6009335;28;96547;-70
2022/10/20 07:59:37;;;;;;;;;4.00;3.50;;;;;37.59;12.14;99832.38;6035872;28;96286;-70
2022/10/20 08:02:40;;;;;;;;;4.00;3.50;;;;;38.27;12.25;99833.31;6038053;28;96638;-70
2022/10/20 08:05:44;;;;;;;;;5.00;4.00;;;;;37.83;12.39;99833.13;6019839;29;97151;-69
2022/10/20 08:08:48;;;;;;;;;3.00;3.00;;;;;38.82;12.27;99837.13;6018175;28;96280;-69
2022/10/20 08:11:52;;;;;;;;;4.00;4.00;;;;;39.92;11.64;99832.38;6035377;28;97248;-70
2022/10/20 08:14:58;;;;;;;;;3.00;3.00;;;;;40.07;11.09;99836.88;6027334;28;96296;-70
2022/10/20 08:18:01;;;;;;;;;2.80;2.00;;;;;40.50;11.07;99843.50;6037189;28;96495;-70
2022/10/20 08:21:10;;;;;;;;;3.00;3.00;;;;;40.99;11.13;99840.81;6020953;28;96843;-69
2022/10/20 08:24:15;;;;;;;;;4.00;3.00;;;;;41.73;10.14;99842.81;6036987;28;96418;-69
2022/10/20 08:27:22;;;;;;;;;3.20;3.00;;;;;41.71;9.86;99831.06;6029271;28;98916;-70
2022/10/20 08:30:25;;;;;;;;;3.00;3.00;;;;;41.55;10.32;99844.84;5989293;29;98646;-70
2022/10/20 08:33:29;;;;;;;;;4.00;4.00;;;;;39.88;11.04;99837.19;6020208;29;96439;-70
2022/10/20 08:36:32;;;;;;;;;5.00;4.00;;;;;39.88;11.12;99837.19;6023228;28;96323;-69
2022/10/20 08:39:37;;;;;;;;;4.40;4.40;;;;;40.48;11.09;99840.25;6006949;28;98440;-70
2022/10/20 08:42:44;;;;;;;;;2.80;2.80;;;;;41.36;10.59;99839.59;6033115;28;96995;-69
2022/10/20 08:45:47;;;;;;;;;3.00;3.00;;;;;42.07;10.13;99836.63;6011794;28;96717;-70
2022/10/20 08:48:51;;;;;;;;;3.00;3.00;;;;;42.78;10.27;99839.94;6036983;28;96320;-70
2022/10/20 08:51:55;;;;;;;;;4.00;4.00;;;;;43.03;9.47;99839.75;6034237;28;97011;-70
2022/10/20 08:55:01;;;;;;;;;3.00;3.00;;;;;43.03;9.05;99839.75;6024121;28;98591;-69
2022/10/20 08:58:07;;;;;;;;;6.00;4.00;;;;;43.56;9.36;99842.94;5992113;28;96726;-69
2022/10/20 09:01:19;;;;;;;;;3.00;3.00;;;;;42.69;8.94;99831.91;6020801;28;96655;-70
2022/10/20 09:04:27;;;;;;;;;5.00;4.00;;;;;41.95;9.81;99820.88;6025364;28;96786;-70
2022/10/20 09:07:33;;;;;;;;;4.40;4.00;;;;;42.26;9.98;99827.63;6022456;28;97501;-70
2022/10/20 09:10:42;;;;;;;;;4.00;4.00;;;;;42.47;9.40;99821.88;6040121;28;96619;-70
2022/10/20 09:13:46;;;;;;;;;4.00;3.40;;;;;42.60;9.30;99825.84;5989946;28;98359;-69
2022/10/20 09:16:50;;;;;;;;;4.00;3.80;;;;;42.69;9.22;99823.38;6025846;28;98081;-69
2022/10/20 09:20:04;;;;;;;;;4.20;4.00;;;;;42.93;9.58;99821.56;6018017;28;97240;-69
2022/10/20 09:23:12;;;;;;;;;4.00;3.00;;;;;42.95;9.05;99815.50;6020914;28;96764;-69
2022/10/20 09:26:41;;;;;;;;;4.00;3.00;;;;;42.35;9.09;99808.19;6021300;28;96296;-69
2022/10/20 09:30:13;;;;;;;;;2.00;2.00;;;;;42.22;9.13;99802.16;6020413;28;96398;-69
2022/10/20 09:33:22;;;;;;;;;4.00;4.00;;;;;42.19;9.44;99807.81;6025802;28;97582;-69
2022/10/20 09:36:30;;;;;;;;;3.00;3.00;;;;;42.01;9.38;99799.44;6022215;28;97885;-69
2022/10/20 09:39:41;;;;;;;;;3.00;3.00;;;;;41.92;9.61;99797.03;6028567;28;96536;-69
2022/10/20 09:42:51;;;;;;;;;3.00;3.00;;;;;41.64;9.64;99793.47;6037419;28;96467;-69
2022/10/20 09:45:59;;;;;;;;;3.00;3.00;;;;;41.29;9.66;99797.16;6025359;28;96712;-69
2022/10/20 09:49:03;;;;;;;;;3.00;3.00;;;;;41.13;10.03;99791.09;6021215;28;96561;-69
2022/10/20 09:52:18;;;;;;;;;4.00;3.60;;;;;40.95;10.21;99786.25;6019439;28;96834;-69
2022/10/20 09:55:28;;;;;;;;;3.00;3.00;;;;;40.39;9.67;99783.31;6021721;28;96879;-69
2022/10/20 09:58:37;;;;;;;;;3.00;3.00;;;;;40.14;9.93;99786.06;6026725;28;96796;-69
2022/10/20 10:01:53;;;;;;;;;2.60;2.60;;;;;40.42;10.23;99791.03;6026821;28;96376;-68
2022/10/20 10:05:15;;;;;;;;;3.40;3.00;;;;;40.12;10.84;99778.00;6020293;28;96408;-69
2022/10/20 10:08:19;;;;;;;;;3.00;3.00;;;;;40.13;10.98;99787.25;6027199;28;96545;-68
2022/10/20 10:11:34;;;;;;;;;3.00;3.00;;;;;40.41;10.64;99778.91;6026774;28;96293;-69
2022/10/20 10:14:50;;;;;;;;;3.00;3.00;;;;;40.37;10.34;99783.72;6021772;28;96358;-68
2022/10/20 10:17:55;;;;;;;;;3.00;3.00;;;;;40.19;10.72;99778.03;6007045;28;96773;-69
2022/10/20 10:21:01;;;;;;;;;3.00;3.00;;;;;39.78;10.38;99768.19;6026572;28;96376;-69
2022/10/20 10:24:04;;;;;;;;;3.00;3.00;;;;;39.99;10.69;99776.72;6006856;28;96668;-69
2022/10/20 10:27:20;;;;;;;;;2.00;2.00;;;;;38.80;10.28;99778.34;6021608;28;96623;-69
2022/10/20 10:30:30;;;;;;;;;2.00;2.00;;;;;38.55;11.46;99760.38;6017757;28;96862;-68
2022/10/20 10:33:34;;;;;;;;;2.00;2.00;;;;;38.85;10.73;99775.16;6013978;29;97235;-68
2022/10/20 10:36:38;;;;;;;;;2.00;1.00;;;;;37.85;11.06;99765.97;6018709;28;96676;-68
2022/10/20 10:39:42;;;;;;;;;3.00;2.00;;;;;37.20;11.96;99755.81;6024833;28;96225;-67
2022/10/20 10:43:00;;;;;;;;;2.00;2.00;;;;;37.33;12.07;99764.84;6012151;28;96326;-67
2022/10/20 10:46:07;;;;;;;;;1.00;1.00;;;;;36.74;11.77;99757.88;6019745;28;96470;-68
2022/10/20 10:49:35;;;;;;;;;1.00;1.00;;;;;36.60;12.11;99749.16;6027079;28;96321;-68
2022/10/20 10:52:50;;;;;;;;;2.00;2.00;;;;;36.71;11.51;99758.59;6018933;28;96520;-67
2022/10/20 10:56:00;;;;;;;;;2.00;2.00;;;;;36.45;11.69;99748.09;6015013;28;96275;-67
2022/10/20 10:59:10;;;;;;;;;2.00;2.00;;;;;35.86;12.63;99747.72;6021722;28;98021;-67
2022/10/20 11:02:50;;;;;;;;;3.00;3.00;;;;;36.28;13.04;99750.56;6024734;28;96330;-68
2022/10/20 11:06:14;;;;;;;;;2.00;2.00;;;;;36.62;12.19;99746.81;6027367;28;96360;-67
2022/10/20 11:09:27;;;;;;;;;2.00;2.00;;;;;36.96;12.67;99744.16;6030276;28;96432;-67
2022/10/20 11:12:47;;;;;;;;;2.00;2.00;;;;;37.29;11.57;99730.22;6021116;28;96432;-67
2022/10/20 11:16:04;;;;;;;;;1.00;1.00;;;;;37.68;12.05;99728.78;6027324;28;96337;-67
2022/10/20 11:19:38;;;;;;;;;1.00;1.00;;;;;37.24;12.39;99728.53;6018852;28;98881;-68
2022/10/20 11:22:55;;;;;;;;;2.00;2.00;;;;;36.56;13.01;99720.19;6023168;28;96231;-68
2022/10/20 11:26:08;;;;;;;;;1.00;1.00;;;;;36.79;12.12;99709.78;6031150;28;96567;-68
2022/10/20 11:29:21;;;;;;;;;1.75;1.75;;;;;36.28;12.17;99698.03;6007852;29;98583;-66
2022/10/20 11:32:31;;;;;;;;;1.00;1.00;;;;;35.82;11.93;99708.38;6019978;28;96611;-67
2022/10/20 11:35:43;;;;;;;;;1.00;1.00;;;;;34.80;12.58;99695.59;6022000;28;97512;-67
2022/10/20 11:38:51;;;;;;;;;2.00;2.00;;;;;34.11;12.86;99702.59;6032244;28;96668;-67
2022/10/20 11:42:05;;;;;;;;;3.00;3.00;;;;;32.20;15.17;99688.22;6019534;28;96436;-67
2022/10/20 11:45:26;;;;;;;;;2.60;2.60;;;;;33.53;15.21;99690.13;6019453;28;98288;-67
2022/10/20 11:48:34;;;;;;;;;2.00;2.00;;;;;34.20;14.14;99682.88;6033087;28;96591;-66
2022/10/20 11:52:05;;;;;;;;;2.40;2.00;;;;;34.74;13.62;99678.28;6014725;28;98361;-66
2022/10/20 11:55:26;;;;;;;;;2.00;2.00;;;;;35.11;13.72;99680.72;6006836;28;98597;-67
2022/10/20 11:58:58;;;;;;;;;2.60;2.60;;;;;35.31;13.40;99682.41;6030966;28;96320;-66
2022/10/20 12:02:31;;;;;;;;;3.00;3.00;;;;;35.34;13.38;99678.88;6010964;28;96310;-66
2022/10/20 12:05:54;;;;;;;;;2.00;2.00;;;;;35.33;13.48;99654.03;6018806;28;97735;-66
2022/10/20 12:09:18;;;;;;;;;5.00;5.00;;;;;35.34;12.92;99662.03;6021473;28;97360;-68
2022/10/20 12:12:30;;;;;;;;;2.00;2.00;;;;;32.73;14.25;99652.91;6020758;28;96892;-68
2022/10/20 12:15:45;;;;;;;;;2.00;2.00;;;;;31.88;15.29;99636.03;6023710;28;96355;-67
2022/10/20 12:19:06;;;;;;;;;1.00;1.00;;;;;31.01;15.90;99646.28;6019597;28;96733;-67
2022/10/20 12:22:37;;;;;;;;;1.20;1.20;;;;;30.16;16.33;99643.59;6021170;28;96324;-67
2022/10/20 12:25:42;;;;;;;;;3.00;3.00;;;;;29.28;17.56;99648.78;6020786;28;96290;-67
2022/10/20 12:28:46;;;;;;;;;3.00;3.00;;;;;28.41;18.33;99639.47;6020470;28;97032;-67
2022/10/20 12:32:27;;;;;;;;;3.00;3.00;;;;;28.20;19.14;99637.63;6021847;28;96722;-67
2022/10/20 12:36:00;;;;;;;;;2.00;2.00;;;;;27.94;18.67;99629.97;6020464;29;97025;-67
2022/10/20 12:39:23;;;;;;;;;2.00;2.00;;;;;25.49;19.52;99638.50;6020046;28;97013;-67
2022/10/20 12:42:30;;;;;;;;;2.00;2.00;;;;;25.24;20.83;99632.28;6021270;28;96534;-67
2022/10/20 12:45:41;;;;;;;;;2.00;2.00;;;;;24.48;19.97;99630.56;6020094;28;96706;-67
2022/10/20 12:48:48;;;;;;;;;1.00;1.00;;;;;24.38;21.07;99629.91;6022701;28;96705;-67
2022/10/20 12:51:55;;;;;;;;;2.00;2.00;;;;;24.03;21.38;99625.56;6021416;28;96660;-67
2022/10/20 12:55:04;;;;;;;;;2.00;2.00;;;;;24.23;21.08;99624.56;6019729;28;97117;-66
2022/10/20 12:58:25;;;;;;;;;2.00;2.00;;;;;24.17;21.44;99618.28;6010358;28;97111;-67
2022/10/20 13:01:30;;;;;;;;;3.00;3.00;;;;;24.06;21.54;99623.03;6021307;28;96357;-67
2022/10/20 13:04:56;;;;;;;;;3.00;3.00;;;;;23.73;22.08;99623.94;6018012;28;97475;-67
2022/10/20 13:08:24;;;;;;;;;2.00;2.00;;;;;23.84;22.91;99619.16;6017477;28;96587;-66
2022/10/20 13:11:44;;;;;;;;;2.00;2.00;;;;;23.47;22.81;99603.25;6016932;28;96492;-66
2022/10/20 13:15:05;;;;;;;;;2.00;2.00;;;;;23.71;23.14;99615.97;6018977;28;97514;-67
2022/10/20 13:18:21;;;;;;;;;3.50;3.00;;;;;23.93;22.99;99615.50;6018990;28;96596;-66
2022/10/20 13:21:31;;;;;;;;;2.00;2.00;;;;;24.00;23.05;99612.38;6018144;28;96283;-67
2022/10/20 13:24:37;;;;;;;;;2.00;2.00;;;;;23.40;23.30;99620.09;6024511;28;96402;-67
2022/10/20 13:27:49;;;;;;;;;4.00;4.00;;;;;22.67;24.20;99605.44;6014186;28;97084;-67
2022/10/20 13:31:14;;;;;;;;;2.60;2.60;;;;;22.84;23.72;99608.66;6018199;28;96471;-67
2022/10/20 13:34:25;;;;;;;;;2.00;2.00;;;;;22.69;23.84;99611.47;6018008;28;96700;-65
2022/10/20 13:37:47;;;;;;;;;3.00;3.00;;;;;22.20;25.10;99611.41;6018031;28;96820;-65
2022/10/20 13:40:59;;;;;;;;;4.00;3.60;;;;;21.41;25.62;99593.69;6016390;28;96335;-65
2022/10/20 13:44:12;;;;;;;;;3.00;3.00;;;;;21.20;25.69;99613.19;6020223;28;97008;-65
2022/10/20 13:47:35;;;;;;;;;2.00;2.00;;;;;21.35;26.20;99591.25;6016329;28;96427;-65
2022/10/20 13:50:44;;;;;;;;;3.00;3.00;;;;;21.27;25.96;99603.59;6018230;28;96278;-64
2022/10/20 13:53:51;;;;;;;;;4.00;3.00;;;;;21.43;26.10;99604.41;6020206;28;97324;-64
2022/10/20 13:56:55;;;;;;;;;1.80;1.80;;;;;21.49;26.00;99595.91;6023209;28;96690;-64
2022/10/20 14:00:01;;;;;;;;;4.00;3.00;;;;;21.11;26.61;99589.00;6025207;28;97755;-64
2022/10/20 14:03:15;;;;;;;;;3.00;2.00;;;;;20.53;27.61;99578.50;6025985;28;97013;-64
2022/10/20 14:06:31;;;;;;;;;3.00;2.50;;;;;20.25;27.84;99585.22;6021360;28;96435;-64
2022/10/20 14:09:35;;;;;;;;;3.00;3.00;;;;;20.10;27.96;99588.72;6022165;28;96711;-68
2022/10/20 14:12:40;;;;;;;;;3.00;3.00;;;;;19.71;28.58;99595.63;6029672;28;96483;-69
2022/10/20 14:15:47;;;;;;;;;3.00;3.00;;;;;19.30;29.10;99589.03;6019954;28;96825;-68
2022/10/20 14:19:00;;;;;;;;;3.00;3.00;;;;;19.23;29.35;99591.13;6020733;28;97100;-68
2022/10/20 14:22:17;;;;;;;;;3.00;3.00;;;;;19.09;29.41;99596.22;6012638;28;99113;-67
2022/10/20 14:25:21;;;;;;;;;4.00;4.00;;;;;19.14;29.74;99595.44;6025352;28;97556;-68
2022/10/20 14:28:28;;;;;;;;;3.00;3.00;;;;;19.45;28.96;99587.22;6014936;29;98357;-69
2022/10/20 14:31:31;;;;;;;;;5.00;5.00;;;;;19.61;29.14;99585.44;6020360;28;96314;-68
2022/10/20 14:34:36;;;;;;;;;4.00;4.00;;;;;19.46;28.98;99588.06;6019258;28;96558;-69
2022/10/20 14:37:45;;;;;;;;;4.40;4.40;;;;;19.46;29.07;99582.59;6016168;28;96846;-70
2022/10/20 14:40:51;;;;;;;;;4.00;4.00;;;;;19.52;29.56;99581.53;6014384;29;98409;-68
2022/10/20 14:43:57;;;;;;;;;4.00;3.80;;;;;19.02;29.38;99544.50;6014582;28;96332;-69
2022/10/20 14:47:13;;;;;;;;;5.00;4.25;;;;;19.23;29.66;99582.94;6032488;28;96539;-66
2022/10/20 14:50:22;;;;;;;;;4.00;4.00;;;;;19.29;29.91;99581.91;6038671;28;96628;-64
2022/10/20 14:53:31;;;;;;;;;4.00;4.00;;;;;19.57;29.49;99584.31;6020978;28;96473;-69